USCGC Eagle — NRCB — position and weather

sailwx.info

Track history (hours):
 
Tides and Currents Weather Stations Pressure Air Temp Water Temp Dewpoint Dewpoint Depression Visibility Wind Speed Wind Dir Waves Ship Positions

USCGC Eagle (United States)

Training ship of US Coast Guard Academy, and only square-rigger in active service in the US armed services. Ex German ship Horst Wessel.

Ship's website: http://www.cga.edu/eagle/

Last reported at 2019-Jun-16 15:00 UTC. Time now 2019-Jun-16 15:16 UTC.
Position N 49°28' E 000°40'.

Type: Sailing vessel. MMSI: 303990000.

Date/timePositionNaut miles runAvg speedWind from/ knotsBaromVisibWave heightAir tempDewpointWater temp
2019-Jun-16 15:00N 49°28' E 000°40'4 8.3
2019-Jun-16 14:30N 49°31' E 000°45'3 6.8
2019-Jun-16 14:00N 49°29' E 000°48'4 7.1
2019-Jun-16 13:30N 49°25' E 000°48'3 5.0
2019-Jun-16 13:00N 49°25' E 000°52'3 6.4
2019-Jun-16 12:30N 49°28' E 000°52'3 5.0
2019-Jun-16 11:59N 49°29' E 000°55'2 4.0
2019-Jun-16 11:30N 49°27' E 000°56'3 5.6
2019-Jun-16 11:00N 49°24' E 000°56'3 6.3
2019-Jun-16 10:30N 49°21' E 000°56'3 5.3
2019-Jun-16 09:56N 49°22' E 001°00'3 5.0
2019-Jun-16 09:14N 49°26' E 001°02'1 2.7
2019-Jun-16 09:00N 49°26' E 001°02'0 0.7
2019-Jun-16 08:23N 49°26' E 001°03'0 0.0
2019-Jun-16 07:44N 49°26' E 001°03'  
2019-Jun-12 21:11N 49°26' E 001°03'0 0.0
2019-Jun-12 20:59N 49°26' E 001°03'0 0.0
2019-Jun-12 20:30N 49°26' E 001°03'1 1.4
2019-Jun-12 20:00N 49°26' E 001°02'3 6.7
2019-Jun-12 19:31N 49°23' E 001°01'4 7.0
2019-Jun-12 19:00N 49°22' E 000°55'612.2
2019-Jun-12 18:30N 49°29' E 000°56'4 8.3
2019-Jun-12 18:00N 49°25' E 000°52'2 4.7
2019-Jun-12 17:31N 49°27' E 000°49'610.7
2019-Jun-12 16:58N 49°31' E 000°44'510.4
2019-Jun-12 16:30N 49°27' E 000°40'5 9.9
2019-Jun-12 16:00N 49°28' E 000°32'510.3
2019-Jun-12 15:31N 49°27' E 000°25'713.2
2019-Jun-12 15:00N 49°26' E 000°15'612.5
2019-Jun-12 14:30N 49°26' E 000°05'611.0
2019-Jun-12 14:00N 49°28' W 000°03'1 1.1
2019-Jun-12 13:31N 49°28' W 000°04'1 1.7
2019-Jun-12 13:00N 49°28' W 000°03'3 5.6
2019-Jun-12 12:30N 49°29' W 000°07'4 8.1
2019-Jun-12 11:58N 49°29' W 000°13'3 6.2
2019-Jun-12 11:30N 49°31' W 000°16'1 2.7
2019-Jun-12 11:00N 49°32' W 000°18'4 8.4
2019-Jun-12 10:30N 49°35' W 000°22'4 8.6
2019-Jun-12 10:00N 49°38' W 000°27'9 7.3
2019-Jun-12 08:48N 49°44' W 000°37'1 3.9
2019-Jun-12 08:30N 49°45' W 000°36'3 4.0
2019-Jun-12 07:50N 49°47' W 000°35'8 1.1
2019-Jun-12 00:54N 49°40' W 000°40'4 6.2
2019-Jun-12 00:19N 49°44' W 000°40'22 5.4
2019-Jun-11 20:18N 50°02' W 000°21'2 7.4
2019-Jun-11 20:00N 50°02' W 000°18'4 7.2
2019-Jun-11 19:30N 50°04' W 000°13'3 6.4
2019-Jun-11 19:01N 50°05' W 000°08'3 5.9
2019-Jun-11 18:30N 50°06' W 000°04'3 5.5
2019-Jun-11 18:00N 50°07' W 000°00'3 5.1
2019-Jun-11 17:30N 50°08' E 000°04'2 4.7
2019-Jun-11 17:00N 50°09' E 000°07'2 4.3
2019-Jun-11 16:30N 50°10' E 000°10'24 1.0
2019-Jun-10 16:05N 49°53' W 000°17'1 4.6
2019-Jun-10 15:49N 49°53' W 000°18'1 4.6
2019-Jun-10 15:30N 49°52' W 000°20'2 4.5
2019-Jun-10 15:00N 49°52' W 000°24'2 4.2
2019-Jun-10 14:27N 49°51' W 000°27'2 4.3
2019-Jun-10 13:54N 49°50' W 000°31'15 1.0
2019-Jun-09 23:34N 49°36' W 000°31'0 4.3
2019-Jun-09 23:28N 49°35' W 000°31'3 4.1
2019-Jun-09 22:47N 49°33' W 000°31'1 4.2
2019-Jun-09 22:26N 49°31' W 000°31'2 4.4
2019-Jun-09 21:59N 49°29' W 000°32'5 4.8
2019-Jun-09 20:54N 49°24' W 000°32'23 3.7
2019-Jun-09 14:40N 49°34' W 001°04'1 6.3
2019-Jun-09 14:29N 49°35' W 001°04'10 2.5
2019-Jun-09 10:30N 49°44' W 001°11'511.0
2019-Jun-09 10:01N 49°47' W 001°18'510.9
2019-Jun-09 09:31N 49°46' W 001°26'510.3
2019-Jun-09 09:01N 49°44' W 001°33'4 8.8
2019-Jun-09 08:31N 49°42' W 001°39'3 6.6
2019-Jun-09 08:01N 49°39' W 001°37'0 0.7
2019-Jun-09 07:28N 49°39' W 001°36'0 0.0
2019-Jun-09 06:58N 49°39' W 001°36'0 0.0
2019-Jun-09 06:28N 49°39' W 001°36'0 0.0
2019-Jun-09 05:58N 49°39' W 001°36'0 0.0
2019-Jun-09 05:28N 49°39' W 001°36'0 0.0
2019-Jun-09 04:58N 49°39' W 001°36'  
Track history (hours):
 
Tides and Currents Weather Stations Pressure Air Temp Water Temp Dewpoint Dewpoint Depression Visibility Wind Speed Wind Dir Waves Ship Positions

USCGC Eagle (United States)

Training ship of US Coast Guard Academy, and only square-rigger in active service in the US armed services. Ex German ship Horst Wessel.

Ship's website: http://www.cga.edu/eagle/

Last reported at 2019-Jun-16 15:00 UTC. Time now 2019-Jun-16 15:16 UTC.
Position N 49°28' E 000°40'.

Type: Sailing vessel. MMSI: 303990000.

Date/timePositionNaut miles runAvg speedWind from/ knotsBaromVisibWave heightAir tempDewpointWater temp
2019-Jun-16 15:00N 49°28' E 000°40'4 8.3
2019-Jun-16 14:30N 49°31' E 000°45'3 6.8
2019-Jun-16 14:00N 49°29' E 000°48'4 7.1
2019-Jun-16 13:30N 49°25' E 000°48'3 5.0
2019-Jun-16 13:00N 49°25' E 000°52'3 6.4
2019-Jun-16 12:30N 49°28' E 000°52'3 5.0
2019-Jun-16 11:59N 49°29' E 000°55'2 4.0
2019-Jun-16 11:30N 49°27' E 000°56'3 5.6
2019-Jun-16 11:00N 49°24' E 000°56'3 6.3
2019-Jun-16 10:30N 49°21' E 000°56'3 5.3
2019-Jun-16 09:56N 49°22' E 001°00'3 5.0
2019-Jun-16 09:14N 49°26' E 001°02'1 2.7
2019-Jun-16 09:00N 49°26' E 001°02'0 0.7
2019-Jun-16 08:23N 49°26' E 001°03'0 0.0
2019-Jun-16 07:44N 49°26' E 001°03'  
2019-Jun-12 21:11N 49°26' E 001°03'0 0.0
2019-Jun-12 20:59N 49°26' E 001°03'0 0.0
2019-Jun-12 20:30N 49°26' E 001°03'1 1.4
2019-Jun-12 20:00N 49°26' E 001°02'3 6.7
2019-Jun-12 19:31N 49°23' E 001°01'4 7.0
2019-Jun-12 19:00N 49°22' E 000°55'612.2
2019-Jun-12 18:30N 49°29' E 000°56'4 8.3
2019-Jun-12 18:00N 49°25' E 000°52'2 4.7
2019-Jun-12 17:31N 49°27' E 000°49'610.7
2019-Jun-12 16:58N 49°31' E 000°44'510.4
2019-Jun-12 16:30N 49°27' E 000°40'5 9.9
2019-Jun-12 16:00N 49°28' E 000°32'510.3
2019-Jun-12 15:31N 49°27' E 000°25'713.2
2019-Jun-12 15:00N 49°26' E 000°15'612.5
2019-Jun-12 14:30N 49°26' E 000°05'611.0
2019-Jun-12 14:00N 49°28' W 000°03'1 1.1
2019-Jun-12 13:31N 49°28' W 000°04'1 1.7
2019-Jun-12 13:00N 49°28' W 000°03'3 5.6
2019-Jun-12 12:30N 49°29' W 000°07'4 8.1
2019-Jun-12 11:58N 49°29' W 000°13'3 6.2
2019-Jun-12 11:30N 49°31' W 000°16'1 2.7
2019-Jun-12 11:00N 49°32' W 000°18'4 8.4
2019-Jun-12 10:30N 49°35' W 000°22'4 8.6
2019-Jun-12 10:00N 49°38' W 000°27'9 7.3
2019-Jun-12 08:48N 49°44' W 000°37'1 3.9
2019-Jun-12 08:30N 49°45' W 000°36'3 4.0
2019-Jun-12 07:50N 49°47' W 000°35'8 1.1
2019-Jun-12 00:54N 49°40' W 000°40'4 6.2
2019-Jun-12 00:19N 49°44' W 000°40'22 5.4
2019-Jun-11 20:18N 50°02' W 000°21'2 7.4
2019-Jun-11 20:00N 50°02' W 000°18'4 7.2
2019-Jun-11 19:30N 50°04' W 000°13'3 6.4
2019-Jun-11 19:01N 50°05' W 000°08'3 5.9
2019-Jun-11 18:30N 50°06' W 000°04'3 5.5
2019-Jun-11 18:00N 50°07' W 000°00'3 5.1
2019-Jun-11 17:30N 50°08' E 000°04'2 4.7
2019-Jun-11 17:00N 50°09' E 000°07'2 4.3
2019-Jun-11 16:30N 50°10' E 000°10'24 1.0
2019-Jun-10 16:05N 49°53' W 000°17'1 4.6
2019-Jun-10 15:49N 49°53' W 000°18'1 4.6
2019-Jun-10 15:30N 49°52' W 000°20'2 4.5
2019-Jun-10 15:00N 49°52' W 000°24'2 4.2
2019-Jun-10 14:27N 49°51' W 000°27'2 4.3
2019-Jun-10 13:54N 49°50' W 000°31'15 1.0
2019-Jun-09 23:34N 49°36' W 000°31'0 4.3
2019-Jun-09 23:28N 49°35' W 000°31'3 4.1
2019-Jun-09 22:47N 49°33' W 000°31'1 4.2
2019-Jun-09 22:26N 49°31' W 000°31'2 4.4
2019-Jun-09 21:59N 49°29' W 000°32'5 4.8
2019-Jun-09 20:54N 49°24' W 000°32'23 3.7
2019-Jun-09 14:40N 49°34' W 001°04'1 6.3
2019-Jun-09 14:29N 49°35' W 001°04'10 2.5
2019-Jun-09 10:30N 49°44' W 001°11'511.0
2019-Jun-09 10:01N 49°47' W 001°18'510.9
2019-Jun-09 09:31N 49°46' W 001°26'510.3
2019-Jun-09 09:01N 49°44' W 001°33'4 8.8
2019-Jun-09 08:31N 49°42' W 001°39'3 6.6
2019-Jun-09 08:01N 49°39' W 001°37'0 0.7
2019-Jun-09 07:28N 49°39' W 001°36'0 0.0
2019-Jun-09 06:58N 49°39' W 001°36'0 0.0
2019-Jun-09 06:28N 49°39' W 001°36'0 0.0
2019-Jun-09 05:58N 49°39' W 001°36'0 0.0
2019-Jun-09 05:28N 49°39' W 001°36'0 0.0
2019-Jun-09 04:58N 49°39' W 001°36'  

Dump ship's entire track history